Time;durP1;ratioP1;P1;durP2;ratioP2;P2;SDS_P1;SDS_P2;PMS_P1;PMS_P2;Temp;Humidity;BMP_temperature;BMP_pressure;BME280_temperature;BME280_humidity;BME280_pressure;Samples;Min_cycle;Max_cycle;Signal;HPM_P1;HPM_P2
2023/12/24 00:01:56;;;;;;;1.70;1.20;;;;;;;;;;5035827;28;20405;-80
2023/12/24 00:04:21;;;;;;;2.03;1.67;;;;;;;;;;5035876;28;20916;-79
2023/12/24 00:06:47;;;;;;;1.20;0.50;;;;;;;;;;5035712;28;20409;-79
2023/12/24 00:09:13;;;;;;;1.87;1.20;;;;;;;;;;5048494;28;20435;-78
2023/12/24 00:11:39;;;;;;;2.10;0.80;;;;;;;;;;5035135;28;20434;-80
2023/12/24 00:14:05;;;;;;;1.60;1.23;;;;;;;;;;5035260;28;20441;-79
2023/12/24 00:16:31;;;;;;;1.93;0.97;;;;;;;;;;5034501;28;20829;-79
2023/12/24 00:18:57;;;;;;;3.93;0.90;;;;;;;;;;5035052;28;20761;-79
2023/12/24 00:21:23;;;;;;;1.47;1.13;;;;;;;;;;5035113;28;20405;-79
2023/12/24 00:23:49;;;;;;;2.03;0.63;;;;;;;;;;5035123;28;20444;-80
2023/12/24 00:26:15;;;;;;;2.03;0.63;;;;;;;;;;5034704;28;20508;-78
2023/12/24 00:28:41;;;;;;;1.63;0.70;;;;;;;;;;5034903;28;20867;-79
2023/12/24 00:31:07;;;;;;;1.40;0.60;;;;;;;;;;5034873;28;20571;-79
2023/12/24 00:33:35;;;;;;;1.30;0.60;;;;;;;;;;5052210;28;20454;-79
2023/12/24 00:36:01;;;;;;;1.17;0.40;;;;;;;;;;5070253;28;20789;-79
2023/12/24 00:38:27;;;;;;;1.70;0.70;;;;;;;;;;5054648;28;20473;-80
2023/12/24 00:40:53;;;;;;;0.87;0.57;;;;;;;;;;5054342;28;20491;-79
2023/12/24 00:43:23;;;;;;;1.23;0.90;;;;;;;;;;5069938;28;20731;-79
2023/12/24 00:45:49;;;;;;;1.30;0.60;;;;;;;;;;5054673;28;21044;-79
2023/12/24 00:48:15;;;;;;;4.70;0.60;;;;;;;;;;5054449;28;20414;-79
2023/12/24 00:50:41;;;;;;;1.30;0.63;;;;;;;;;;5052881;28;20470;-79
2023/12/24 00:53:07;;;;;;;2.40;0.83;;;;;;;;;;5034796;28;20753;-79
2023/12/24 00:55:33;;;;;;;1.67;0.30;;;;;;;;;;5033908;28;20405;-80
2023/12/24 00:57:59;;;;;;;0.80;0.57;;;;;;;;;;5037417;28;20750;-80
2023/12/24 01:00:24;;;;;;;1.00;0.40;;;;;;;;;;5054205;28;20428;-79
2023/12/24 01:02:50;;;;;;;0.80;0.40;;;;;;;;;;5054066;28;20413;-79
2023/12/24 01:05:16;;;;;;;1.23;0.60;;;;;;;;;;5054075;28;20420;-80
2023/12/24 01:07:42;;;;;;;1.37;0.77;;;;;;;;;;5054005;28;20404;-80
2023/12/24 01:10:12;;;;;;;1.30;0.67;;;;;;;;;;5053669;28;20581;-79
2023/12/24 01:12:38;;;;;;;1.20;0.63;;;;;;;;;;5054027;28;20869;-80
2023/12/24 01:15:04;;;;;;;0.80;0.53;;;;;;;;;;5041257;28;20456;-78
2023/12/24 01:17:30;;;;;;;1.43;0.40;;;;;;;;;;5032252;28;20944;-79
2023/12/24 01:19:57;;;;;;;2.50;1.00;;;;;;;;;;5032728;28;20418;-78
2023/12/24 01:22:23;;;;;;;1.50;0.97;;;;;;;;;;5033626;28;20397;-79
2023/12/24 01:24:52;;;;;;;1.67;0.30;;;;;;;;;;5033095;28;20409;-78
2023/12/24 01:27:18;;;;;;;1.60;0.53;;;;;;;;;;5049121;28;20822;-78
2023/12/24 01:29:44;;;;;;;0.90;0.47;;;;;;;;;;5047926;28;20503;-79
2023/12/24 01:32:10;;;;;;;1.33;0.80;;;;;;;;;;5034068;28;20444;-79
2023/12/24 01:34:36;;;;;;;1.40;0.60;;;;;;;;;;5033949;28;20891;-78
2023/12/24 01:37:02;;;;;;;1.50;0.90;;;;;;;;;;5034025;28;20420;-78
2023/12/24 01:39:27;;;;;;;1.47;1.17;;;;;;;;;;5033481;28;20413;-79
2023/12/24 01:41:53;;;;;;;1.77;0.93;;;;;;;;;;5033797;28;20879;-79
2023/12/24 01:44:19;;;;;;;2.20;1.30;;;;;;;;;;5033848;28;20424;-79
2023/12/24 01:46:46;;;;;;;1.60;0.63;;;;;;;;;;5033944;28;20882;-79
2023/12/24 01:49:14;;;;;;;2.40;0.83;;;;;;;;;;5033918;28;20895;-78
2023/12/24 01:51:40;;;;;;;1.80;1.20;;;;;;;;;;5033852;28;20457;-79
2023/12/24 01:54:07;;;;;;;1.70;0.47;;;;;;;;;;5048751;28;20992;-79
2023/12/24 01:56:33;;;;;;;1.90;1.00;;;;;;;;;;5033777;28;20417;-78
2023/12/24 01:58:59;;;;;;;2.00;1.60;;;;;;;;;;5033652;28;20414;-79
2023/12/24 02:01:26;;;;;;;3.03;0.90;;;;;;;;;;5033715;28;20477;-78
2023/12/24 02:03:52;;;;;;;1.90;1.37;;;;;;;;;;5048939;28;20419;-79
2023/12/24 02:06:18;;;;;;;2.17;1.27;;;;;;;;;;5033489;28;20424;-79
2023/12/24 02:08:44;;;;;;;1.87;1.37;;;;;;;;;;5033395;28;20778;-79
2023/12/24 02:11:10;;;;;;;1.50;1.13;;;;;;;;;;5033231;28;20468;-79
2023/12/24 02:13:36;;;;;;;3.87;2.03;;;;;;;;;;5033475;28;20399;-78
2023/12/24 02:16:03;;;;;;;2.73;0.90;;;;;;;;;;5033360;28;20491;-79
2023/12/24 02:18:29;;;;;;;2.93;1.70;;;;;;;;;;5033294;28;20440;-79
2023/12/24 02:21:05;;;;;;;2.87;1.20;;;;;;;;;;5033252;28;20416;-78
2023/12/24 02:23:31;;;;;;;3.17;1.90;;;;;;;;;;5033106;28;20750;-78
2023/12/24 02:25:58;;;;;;;1.87;0.87;;;;;;;;;;5032997;28;20412;-78
2023/12/24 02:28:27;;;;;;;1.60;0.67;;;;;;;;;;5033111;28;20417;-79
2023/12/24 02:30:58;;;;;;;2.37;1.27;;;;;;;;;;5032978;28;20525;-79
2023/12/24 02:33:29;;;;;;;1.50;0.40;;;;;;;;;;5032902;28;20526;-79
2023/12/24 02:35:57;;;;;;;0.70;0.43;;;;;;;;;;5033193;28;20455;-79
2023/12/24 02:38:23;;;;;;;1.10;0.20;;;;;;;;;;5033066;28;20838;-78
2023/12/24 02:40:49;;;;;;;0.30;0.20;;;;;;;;;;5032322;28;20481;-79
2023/12/24 02:43:15;;;;;;;0.20;0.20;;;;;;;;;;5033065;28;20470;-79
2023/12/24 02:45:42;;;;;;;0.30;0.20;;;;;;;;;;5033004;28;20823;-78
2023/12/24 02:48:08;;;;;;;0.30;0.20;;;;;;;;;;5033066;28;20777;-78
2023/12/24 02:50:34;;;;;;;0.70;0.20;;;;;;;;;;5033085;28;20470;-78
2023/12/24 02:53:00;;;;;;;4.80;0.20;;;;;;;;;;5033025;28;20510;-78
2023/12/24 02:55:26;;;;;;;1.43;0.30;;;;;;;;;;5032645;28;20829;-78
2023/12/24 02:57:52;;;;;;;0.30;0.20;;;;;;;;;;5032977;28;20474;-79
2023/12/24 03:00:17;;;;;;;0.30;0.20;;;;;;;;;;5032998;28;20173;-78
2023/12/24 03:02:43;;;;;;;0.30;0.20;;;;;;;;;;5033037;28;20174;-78
2023/12/24 03:05:09;;;;;;;0.40;0.20;;;;;;;;;;5032955;28;20439;-79
2023/12/24 03:07:35;;;;;;;0.80;0.20;;;;;;;;;;5032849;28;20496;-79
2023/12/24 03:10:01;;;;;;;0.30;0.20;;;;;;;;;;5032473;28;20577;-79
2023/12/24 03:12:27;;;;;;;0.30;0.20;;;;;;;;;;5032864;28;20188;-79
2023/12/24 03:14:53;;;;;;;1.07;0.20;;;;;;;;;;5032941;28;20431;-78
2023/12/24 03:17:19;;;;;;;0.30;0.20;;;;;;;;;;5032850;28;20254;-79
2023/12/24 03:19:45;;;;;;;1.33;0.30;;;;;;;;;;5032827;28;20833;-79
2023/12/24 03:22:11;;;;;;;0.37;0.10;;;;;;;;;;5032792;28;20889;-79
2023/12/24 03:24:37;;;;;;;0.30;0.20;;;;;;;;;;5032482;28;20420;-79
2023/12/24 03:27:03;;;;;;;0.30;0.20;;;;;;;;;;5032708;28;20413;-79
2023/12/24 03:29:29;;;;;;;0.30;0.20;;;;;;;;;;5032677;28;20474;-79
2023/12/24 03:31:55;;;;;;;0.80;0.10;;;;;;;;;;5032518;28;20923;-79
2023/12/24 03:34:22;;;;;;;0.70;0.20;;;;;;;;;;5032291;28;20460;-79
2023/12/24 03:36:48;;;;;;;0.30;0.20;;;;;;;;;;5031602;28;20173;-79
2023/12/24 03:39:14;;;;;;;0.30;0.20;;;;;;;;;;5031793;28;20986;-79
2023/12/24 03:41:41;;;;;;;0.30;0.20;;;;;;;;;;5032596;28;20205;-80
2023/12/24 03:44:07;;;;;;;0.40;0.20;;;;;;;;;;5032596;28;20408;-79
2023/12/24 03:46:33;;;;;;;0.30;0.20;;;;;;;;;;5047971;28;20439;-79
2023/12/24 03:48:59;;;;;;;0.40;0.20;;;;;;;;;;5032581;28;20434;-80
2023/12/24 03:51:25;;;;;;;0.33;0.20;;;;;;;;;;5032901;28;20480;-79
2023/12/24 03:53:51;;;;;;;0.60;0.20;;;;;;;;;;5035920;28;20904;-79
2023/12/24 03:56:17;;;;;;;1.17;0.20;;;;;;;;;;5036202;28;20852;-79
2023/12/24 03:58:43;;;;;;;0.73;0.20;;;;;;;;;;5036184;28;20492;-79
2023/12/24 04:01:09;;;;;;;1.57;0.20;;;;;;;;;;5036091;28;20405;-79
2023/12/24 04:03:36;;;;;;;0.37;0.20;;;;;;;;;;5051466;28;20496;-78
2023/12/24 04:06:02;;;;;;;0.40;0.20;;;;;;;;;;5036103;28;20458;-80
2023/12/24 04:08:28;;;;;;;0.40;0.20;;;;;;;;;;5035605;28;20986;-79
2023/12/24 04:10:54;;;;;;;1.20;0.20;;;;;;;;;;5035855;28;20475;-79
2023/12/24 04:13:20;;;;;;;0.40;0.20;;;;;;;;;;5035939;28;20912;-79
2023/12/24 04:15:46;;;;;;;0.90;0.20;;;;;;;;;;5035869;28;20235;-79
2023/12/24 04:18:11;;;;;;;0.53;0.20;;;;;;;;;;5035840;28;20412;-79
2023/12/24 04:20:38;;;;;;;0.60;0.20;;;;;;;;;;5035668;28;20462;-79
2023/12/24 04:23:04;;;;;;;1.17;0.20;;;;;;;;;;5035790;28;20183;-80
2023/12/24 04:25:30;;;;;;;1.17;0.30;;;;;;;;;;5050666;28;20474;-79
2023/12/24 04:27:56;;;;;;;2.70;0.20;;;;;;;;;;5051065;28;20439;-79
2023/12/24 04:30:22;;;;;;;1.33;0.20;;;;;;;;;;5035576;28;20473;-79
2023/12/24 04:32:48;;;;;;;0.53;0.20;;;;;;;;;;5035517;28;20462;-79
2023/12/24 04:35:14;;;;;;;1.17;0.50;;;;;;;;;;5035277;28;20226;-78
2023/12/24 04:37:40;;;;;;;1.60;1.13;;;;;;;;;;5035428;28;20413;-79
2023/12/24 04:40:06;;;;;;;0.80;0.20;;;;;;;;;;5035171;28;20475;-79
2023/12/24 04:42:32;;;;;;;1.20;0.20;;;;;;;;;;5035453;28;20204;-79
2023/12/24 04:44:58;;;;;;;0.50;0.20;;;;;;;;;;5035349;28;20421;-79
2023/12/24 04:47:24;;;;;;;0.90;0.20;;;;;;;;;;5035251;28;20494;-79
2023/12/24 04:49:50;;;;;;;0.60;0.20;;;;;;;;;;5035222;28;20213;-79
2023/12/24 04:52:16;;;;;;;0.50;0.20;;;;;;;;;;5035091;28;20405;-78
2023/12/24 04:54:42;;;;;;;0.70;0.20;;;;;;;;;;5034763;28;20181;-79
2023/12/24 04:57:07;;;;;;;0.60;0.20;;;;;;;;;;5035138;28;20468;-79
2023/12/24 04:59:33;;;;;;;0.47;0.20;;;;;;;;;;5035124;28;20897;-79
2023/12/24 05:01:59;;;;;;;0.87;0.20;;;;;;;;;;5034987;28;20500;-80
2023/12/24 05:04:27;;;;;;;0.70;0.20;;;;;;;;;;5034766;28;20886;-78
2023/12/24 05:06:53;;;;;;;1.67;0.20;;;;;;;;;;5034827;28;20697;-79
2023/12/24 05:09:19;;;;;;;0.40;0.20;;;;;;;;;;5034524;28;20495;-78
2023/12/24 05:11:45;;;;;;;0.90;0.30;;;;;;;;;;5034792;28;20432;-79
2023/12/24 05:14:11;;;;;;;0.50;0.10;;;;;;;;;;5034742;28;20400;-78
2023/12/24 05:16:37;;;;;;;0.70;0.40;;;;;;;;;;5034722;28;20413;-78
2023/12/24 05:19:03;;;;;;;0.40;0.20;;;;;;;;;;5034687;28;20508;-79
2023/12/24 05:21:29;;;;;;;0.80;0.20;;;;;;;;;;5034658;28;20444;-78
2023/12/24 05:23:56;;;;;;;0.40;0.10;;;;;;;;;;5034157;28;20431;-80
2023/12/24 05:26:22;;;;;;;0.87;0.20;;;;;;;;;;5034605;28;20511;-79
2023/12/24 05:28:47;;;;;;;0.90;0.20;;;;;;;;;;5034440;28;20932;-79
2023/12/24 05:31:13;;;;;;;0.60;0.20;;;;;;;;;;5034414;28;20476;-80
2023/12/24 05:33:39;;;;;;;1.70;0.20;;;;;;;;;;5033763;28;20818;-79
2023/12/24 05:36:05;;;;;;;0.83;0.10;;;;;;;;;;5034352;28;20180;-79
2023/12/24 05:38:31;;;;;;;1.03;0.20;;;;;;;;;;5033882;28;20492;-79
2023/12/24 05:40:57;;;;;;;0.60;0.20;;;;;;;;;;5034338;28;20445;-78
2023/12/24 05:43:23;;;;;;;0.37;0.10;;;;;;;;;;5049702;28;20540;-79
2023/12/24 05:45:49;;;;;;;0.30;0.20;;;;;;;;;;5034241;28;20185;-78
2023/12/24 05:48:15;;;;;;;1.43;0.20;;;;;;;;;;5034132;28;20430;-79
2023/12/24 05:50:41;;;;;;;0.30;0.10;;;;;;;;;;5034055;28;20952;-79
2023/12/24 05:53:07;;;;;;;0.40;0.20;;;;;;;;;;5033821;28;20506;-79
2023/12/24 05:55:33;;;;;;;0.90;0.20;;;;;;;;;;5033907;28;20592;-79
2023/12/24 05:57:59;;;;;;;0.63;0.20;;;;;;;;;;5033987;28;20183;-79
2023/12/24 06:00:25;;;;;;;0.40;0.20;;;;;;;;;;5033906;28;20409;-79
2023/12/24 06:02:50;;;;;;;0.40;0.20;;;;;;;;;;5033832;28;20176;-80
2023/12/24 06:05:16;;;;;;;1.83;0.20;;;;;;;;;;5033900;28;20407;-79
2023/12/24 06:07:42;;;;;;;0.60;0.20;;;;;;;;;;5033744;28;20414;-80
2023/12/24 06:10:12;;;;;;;0.40;0.20;;;;;;;;;;5033325;28;20614;-80
2023/12/24 06:12:38;;;;;;;0.67;0.20;;;;;;;;;;5033585;28;20420;-79
2023/12/24 06:15:04;;;;;;;1.00;0.30;;;;;;;;;;5033013;28;20420;-80
2023/12/24 06:17:33;;;;;;;2.03;0.57;;;;;;;;;;5048845;28;20921;-79
2023/12/24 06:19:59;;;;;;;1.80;0.20;;;;;;;;;;5048723;28;20443;-78
2023/12/24 06:22:25;;;;;;;0.40;0.20;;;;;;;;;;5033422;28;20406;-79
2023/12/24 06:24:51;;;;;;;0.60;0.20;;;;;;;;;;5032979;28;20903;-80
2023/12/24 06:27:17;;;;;;;0.50;0.30;;;;;;;;;;5048574;28;20416;-79
2023/12/24 06:29:43;;;;;;;0.57;0.30;;;;;;;;;;5033228;28;20459;-80
2023/12/24 06:32:09;;;;;;;0.47;0.30;;;;;;;;;;5033447;28;20487;-80
2023/12/24 06:34:35;;;;;;;0.70;0.20;;;;;;;;;;5048550;28;20226;-79
2023/12/24 06:37:01;;;;;;;0.30;0.20;;;;;;;;;;5033472;28;20599;-80
2023/12/24 06:39:27;;;;;;;0.97;0.20;;;;;;;;;;5033077;28;20408;-81
2023/12/24 06:41:54;;;;;;;0.50;0.20;;;;;;;;;;5033395;28;20567;-80
2023/12/24 06:44:20;;;;;;;0.80;0.80;;;;;;;;;;5033359;28;20769;-81
2023/12/24 06:46:46;;;;;;;0.90;0.20;;;;;;;;;;5033384;28;20413;-80
2023/12/24 06:49:12;;;;;;;0.70;0.40;;;;;;;;;;5033163;28;20424;-81
2023/12/24 06:51:38;;;;;;;0.90;0.20;;;;;;;;;;5033075;28;20811;-80
2023/12/24 06:54:04;;;;;;;0.60;0.20;;;;;;;;;;5032884;28;20424;-81
2023/12/24 06:56:30;;;;;;;0.70;0.40;;;;;;;;;;5033146;28;20475;-79
2023/12/24 06:58:56;;;;;;;0.60;0.20;;;;;;;;;;5033191;28;20416;-79
2023/12/24 07:01:22;;;;;;;2.33;0.20;;;;;;;;;;5033136;28;20993;-79
2023/12/24 07:03:48;;;;;;;0.40;0.20;;;;;;;;;;5033257;28;20470;-79
2023/12/24 07:06:14;;;;;;;1.03;0.30;;;;;;;;;;5033210;28;20901;-82
2023/12/24 07:08:40;;;;;;;0.90;0.30;;;;;;;;;;5032704;28;20924;-80
2023/12/24 07:11:06;;;;;;;0.40;0.20;;;;;;;;;;5032825;28;20958;-80
2023/12/24 07:13:32;;;;;;;1.57;0.30;;;;;;;;;;5033169;28;20781;-80
2023/12/24 07:15:59;;;;;;;0.83;0.37;;;;;;;;;;5048178;28;20438;-80
2023/12/24 07:18:25;;;;;;;0.70;0.37;;;;;;;;;;5048387;28;20181;-81
2023/12/24 07:20:52;;;;;;;0.37;0.20;;;;;;;;;;5032992;28;20422;-80
2023/12/24 07:23:18;;;;;;;0.50;0.23;;;;;;;;;;5032497;28;20507;-80
2023/12/24 07:25:43;;;;;;;0.90;0.20;;;;;;;;;;5032951;28;20479;-81
2023/12/24 07:28:09;;;;;;;0.63;0.50;;;;;;;;;;5036488;28;20424;-78
2023/12/24 07:30:35;;;;;;;1.00;0.20;;;;;;;;;;5051916;28;20475;-80
2023/12/24 07:33:01;;;;;;;0.50;0.20;;;;;;;;;;5037102;28;20423;-80
2023/12/24 07:35:28;;;;;;;1.23;0.40;;;;;;;;;;5036524;28;20660;-80
2023/12/24 07:38:01;;;;;;;1.13;0.40;;;;;;;;;;5036374;28;20806;-81
2023/12/24 07:40:27;;;;;;;0.90;0.40;;;;;;;;;;5036805;28;20412;-79
2023/12/24 07:42:53;;;;;;;0.90;0.40;;;;;;;;;;5036935;28;20397;-79
2023/12/24 07:45:19;;;;;;;1.60;0.33;;;;;;;;;;5052062;28;20444;-80
2023/12/24 07:47:45;;;;;;;1.50;0.40;;;;;;;;;;5052080;28;20402;-81
2023/12/24 07:50:11;;;;;;;0.80;0.30;;;;;;;;;;5036502;28;20490;-81
2023/12/24 07:52:37;;;;;;;0.70;0.43;;;;;;;;;;5036692;28;20405;-81
2023/12/24 07:55:03;;;;;;;0.50;0.20;;;;;;;;;;5051437;28;20516;-81
2023/12/24 07:57:29;;;;;;;0.80;0.40;;;;;;;;;;5036458;28;20409;-79
2023/12/24 07:59:55;;;;;;;1.40;0.40;;;;;;;;;;5036623;28;20410;-80
2023/12/24 08:02:21;;;;;;;1.50;0.30;;;;;;;;;;5036371;28;20443;-80
2023/12/24 08:04:47;;;;;;;0.87;0.50;;;;;;;;;;5051880;28;20494;-79
2023/12/24 08:07:13;;;;;;;1.47;0.20;;;;;;;;;;5036274;28;20413;-80
2023/12/24 08:09:39;;;;;;;1.10;0.50;;;;;;;;;;5035898;28;20943;-79
2023/12/24 08:12:05;;;;;;;1.43;0.33;;;;;;;;;;5036115;28;20421;-79
2023/12/24 08:14:31;;;;;;;0.70;0.30;;;;;;;;;;5036173;28;20438;-79
2023/12/24 08:16:57;;;;;;;0.87;0.60;;;;;;;;;;5051403;28;20428;-79
2023/12/24 08:19:23;;;;;;;1.00;0.30;;;;;;;;;;5051437;28;20417;-79
2023/12/24 08:21:49;;;;;;;0.90;0.53;;;;;;;;;;5035969;28;20429;-79
2023/12/24 08:24:18;;;;;;;0.87;0.20;;;;;;;;;;5035582;28;20180;-82
2023/12/24 08:26:52;;;;;;;1.10;0.40;;;;;;;;;;5035841;28;21047;-81
2023/12/24 08:29:18;;;;;;;0.80;0.20;;;;;;;;;;5035604;28;20425;-81
2023/12/24 08:31:44;;;;;;;0.80;0.23;;;;;;;;;;5035373;28;20409;-81
2023/12/24 08:34:13;;;;;;;0.63;0.20;;;;;;;;;;5035383;28;20959;-81
2023/12/24 08:36:39;;;;;;;0.93;0.33;;;;;;;;;;5035499;28;20418;-80
2023/12/24 08:39:05;;;;;;;0.77;0.20;;;;;;;;;;5034615;28;20482;-81
2023/12/24 08:41:31;;;;;;;1.80;0.30;;;;;;;;;;5035553;28;20905;-81
2023/12/24 08:43:58;;;;;;;0.73;0.23;;;;;;;;;;5035313;28;20409;-80
2023/12/24 08:46:24;;;;;;;0.83;0.20;;;;;;;;;;5035313;28;20413;-82
2023/12/24 08:48:50;;;;;;;0.77;0.30;;;;;;;;;;5050731;28;20415;-81
2023/12/24 08:51:16;;;;;;;1.40;0.30;;;;;;;;;;5035201;28;20835;-81
2023/12/24 08:53:42;;;;;;;0.80;0.20;;;;;;;;;;5034987;28;20418;-81
2023/12/24 08:56:08;;;;;;;1.37;0.40;;;;;;;;;;5050425;28;20417;-81
2023/12/24 08:58:34;;;;;;;0.73;0.23;;;;;;;;;;5035118;28;20788;-80
2023/12/24 09:01:00;;;;;;;1.47;0.20;;;;;;;;;;5035072;28;20428;-81
2023/12/24 09:03:26;;;;;;;0.83;0.30;;;;;;;;;;5035121;28;20410;-80
2023/12/24 09:05:52;;;;;;;0.80;0.37;;;;;;;;;;5035307;28;20733;-81
2023/12/24 09:08:19;;;;;;;0.80;0.30;;;;;;;;;;5034605;28;20414;-80
2023/12/24 09:10:45;;;;;;;0.60;0.20;;;;;;;;;;5034998;28;20804;-81
2023/12/24 09:13:11;;;;;;;1.00;0.20;;;;;;;;;;5034994;28;20406;-80
2023/12/24 09:15:40;;;;;;;0.70;0.40;;;;;;;;;;5034580;28;20401;-81
2023/12/24 09:18:09;;;;;;;1.10;0.50;;;;;;;;;;5034917;28;20409;-82
2023/12/24 09:20:42;;;;;;;1.40;0.50;;;;;;;;;;5028710;28;20816;-82
2023/12/24 09:23:08;;;;;;;2.17;0.73;;;;;;;;;;5034187;28;20404;-81
2023/12/24 09:25:34;;;;;;;1.33;0.30;;;;;;;;;;5050110;28;20425;-82
2023/12/24 09:28:04;;;;;;;0.90;0.23;;;;;;;;;;5034633;28;20406;-83
2023/12/24 09:30:30;;;;;;;1.90;0.53;;;;;;;;;;5034600;28;20503;-82
2023/12/24 09:32:59;;;;;;;1.07;0.43;;;;;;;;;;5034399;28;20398;-81
2023/12/24 09:35:30;;;;;;;1.80;0.70;;;;;;;;;;5034164;28;20461;-80
2023/12/24 09:37:55;;;;;;;1.40;0.57;;;;;;;;;;5034039;28;20406;-78
2023/12/24 09:40:21;;;;;;;1.20;0.80;;;;;;;;;;5034620;28;20438;-79
2023/12/24 09:42:47;;;;;;;1.10;0.50;;;;;;;;;;5034190;28;20175;-80
2023/12/24 09:45:13;;;;;;;1.10;0.30;;;;;;;;;;5034177;28;20496;-79
2023/12/24 09:47:40;;;;;;;1.47;0.60;;;;;;;;;;5034042;28;20405;-81
2023/12/24 09:50:06;;;;;;;1.77;0.40;;;;;;;;;;5033040;28;20513;-78
2023/12/24 09:52:33;;;;;;;0.80;0.30;;;;;;;;;;5033610;28;20441;-78
2023/12/24 09:55:00;;;;;;;1.17;0.37;;;;;;;;;;5034017;28;20417;-79
2023/12/24 09:57:25;;;;;;;0.97;0.47;;;;;;;;;;5034000;28;20441;-80
2023/12/24 09:59:51;;;;;;;0.90;0.30;;;;;;;;;;5033906;28;20465;-79
2023/12/24 10:02:17;;;;;;;0.77;0.40;;;;;;;;;;5033879;28;20476;-80
2023/12/24 10:04:43;;;;;;;1.33;0.30;;;;;;;;;;5049303;28;20182;-79
2023/12/24 10:07:09;;;;;;;0.80;0.50;;;;;;;;;;5033864;28;20468;-80
2023/12/24 10:09:42;;;;;;;1.40;0.53;;;;;;;;;;5033390;28;20811;-81
2023/12/24 10:12:09;;;;;;;3.60;0.50;;;;;;;;;;5033642;28;20425;-78
2023/12/24 10:14:36;;;;;;;1.50;0.20;;;;;;;;;;5048869;28;20855;-81
2023/12/24 10:17:03;;;;;;;1.33;0.30;;;;;;;;;;5033549;28;20693;-80
2023/12/24 10:19:29;;;;;;;2.20;0.90;;;;;;;;;;5033488;28;20460;-79
2023/12/24 10:22:05;;;;;;;0.87;0.40;;;;;;;;;;5033433;28;20933;-79
2023/12/24 10:24:32;;;;;;;1.87;0.80;;;;;;;;;;5033097;28;20419;-80
2023/12/24 10:27:10;;;;;;;1.07;0.43;;;;;;;;;;5033454;28;20414;-81
2023/12/24 10:29:37;;;;;;;1.73;0.20;;;;;;;;;;5033227;28;20450;-79
2023/12/24 10:32:03;;;;;;;0.70;0.30;;;;;;;;;;5033314;28;20422;-81
2023/12/24 10:34:33;;;;;;;0.90;0.30;;;;;;;;;;5033142;28;20471;-78
2023/12/24 10:37:00;;;;;;;1.07;0.30;;;;;;;;;;5033323;28;20416;-79
2023/12/24 10:39:26;;;;;;;1.10;0.70;;;;;;;;;;5032930;28;20406;-80
2023/12/24 10:41:53;;;;;;;1.00;0.63;;;;;;;;;;5033158;28;20426;-81
2023/12/24 10:44:20;;;;;;;1.60;0.30;;;;;;;;;;5033154;28;20785;-79
2023/12/24 10:46:46;;;;;;;1.10;0.70;;;;;;;;;;5033110;28;20910;-81
2023/12/24 10:49:12;;;;;;;0.90;0.37;;;;;;;;;;5033222;28;20413;-80
2023/12/24 10:51:39;;;;;;;1.10;0.77;;;;;;;;;;5032886;28;20971;-80
2023/12/24 10:54:06;;;;;;;1.33;0.43;;;;;;;;;;5032691;28;20174;-80
2023/12/24 10:56:33;;;;;;;1.97;0.70;;;;;;;;;;5033079;28;20421;-79
2023/12/24 10:59:17;;;;;;;0.70;0.43;;;;;;;;;;5032946;28;20809;-79
2023/12/24 11:01:47;;;;;;;1.27;0.40;;;;;;;;;;5032649;28;20410;-79
2023/12/24 11:04:32;;;;;;;4.47;0.40;;;;;;;;;;5033013;28;20472;-81
2023/12/24 11:07:04;;;;;;;1.00;0.57;;;;;;;;;;5032616;28;20778;-78
2023/12/24 11:09:36;;;;;;;1.47;0.93;;;;;;;;;;5032495;28;20396;-79
2023/12/24 11:12:02;;;;;;;5.83;0.70;;;;;;;;;;5032691;28;20408;-80
2023/12/24 11:14:37;;;;;;;1.57;0.60;;;;;;;;;;5032767;28;20407;-80
2023/12/24 11:17:05;;;;;;;1.40;0.87;;;;;;;;;;5032677;28;20782;-80
2023/12/24 11:19:32;;;;;;;1.20;0.87;;;;;;;;;;5032744;28;20410;-77
2023/12/24 11:22:07;;;;;;;1.00;0.50;;;;;;;;;;5032829;28;20427;-78
2023/12/24 11:24:34;;;;;;;1.97;0.87;;;;;;;;;;5032198;28;20416;-78
2023/12/24 11:27:00;;;;;;;1.80;1.10;;;;;;;;;;5032592;28;20403;-80
2023/12/24 11:29:42;;;;;;;1.67;0.97;;;;;;;;;;5032482;28;20412;-80
2023/12/24 11:32:32;;;;;;;1.40;1.13;;;;;;;;;;5032404;28;20510;-80
2023/12/24 11:34:59;;;;;;;2.07;0.87;;;;;;;;;;5029124;28;20463;-81
2023/12/24 11:37:27;;;;;;;1.43;0.83;;;;;;;;;;5032356;28;20916;-80
2023/12/24 11:40:02;;;;;;;1.70;0.63;;;;;;;;;;5047901;28;20775;-81
2023/12/24 11:42:44;;;;;;;1.53;1.03;;;;;;;;;;5032582;28;20433;-80
2023/12/24 11:45:20;;;;;;;2.10;0.63;;;;;;;;;;5032593;28;20416;-81
2023/12/24 11:47:46;;;;;;;1.50;0.53;;;;;;;;;;5032537;28;20437;-80
2023/12/24 11:50:12;;;;;;;2.00;0.90;;;;;;;;;;5032414;28;20476;-81
2023/12/24 11:52:46;;;;;;;2.37;1.20;;;;;;;;;;5032260;28;20405;-80
2023/12/24 11:55:14;;;;;;;1.97;0.90;;;;;;;;;;5032537;28;20409;-81
2023/12/24 11:57:41;;;;;;;1.50;1.03;;;;;;;;;;5032444;28;20781;-80
2023/12/24 12:00:12;;;;;;;1.30;0.60;;;;;;;;;;5032396;28;20405;-81
2023/12/24 12:02:38;;;;;;;1.30;0.70;;;;;;;;;;5032455;28;20411;-80
2023/12/24 12:05:04;;;;;;;1.17;0.70;;;;;;;;;;5032457;28;20411;-80
2023/12/24 12:07:30;;;;;;;1.20;0.30;;;;;;;;;;5032089;28;20927;-80
2023/12/24 12:09:56;;;;;;;1.00;0.37;;;;;;;;;;5032243;28;20561;-81
2023/12/24 12:12:22;;;;;;;0.90;0.30;;;;;;;;;;5032681;28;20392;-79
2023/12/24 12:14:48;;;;;;;0.63;0.53;;;;;;;;;;5035836;28;20422;-80
2023/12/24 12:17:13;;;;;;;0.83;0.40;;;;;;;;;;5035882;28;20169;-81
2023/12/24 12:19:40;;;;;;;0.80;0.20;;;;;;;;;;5035835;28;20176;-80
2023/12/24 12:22:06;;;;;;;0.60;0.33;;;;;;;;;;5050919;28;20179;-80
2023/12/24 12:24:34;;;;;;;1.17;0.30;;;;;;;;;;5035702;28;20420;-80
2023/12/24 12:27:00;;;;;;;1.80;0.23;;;;;;;;;;5035568;28;20939;-80
2023/12/24 12:29:25;;;;;;;1.00;0.40;;;;;;;;;;5035581;28;20449;-80
2023/12/24 12:31:57;;;;;;;0.63;0.20;;;;;;;;;;5035539;28;20419;-80
2023/12/24 12:34:23;;;;;;;0.40;0.20;;;;;;;;;;5035359;28;20235;-81
2023/12/24 12:36:49;;;;;;;1.17;0.40;;;;;;;;;;5035547;28;20406;-80
2023/12/24 12:39:16;;;;;;;0.57;0.20;;;;;;;;;;5035140;28;20413;-80
2023/12/24 12:41:42;;;;;;;0.60;0.20;;;;;;;;;;5035404;28;20438;-79
2023/12/24 12:44:08;;;;;;;0.80;0.20;;;;;;;;;;5035408;28;20410;-81
2023/12/24 12:46:34;;;;;;;0.83;0.20;;;;;;;;;;5035439;28;20637;-79
2023/12/24 12:49:10;;;;;;;0.40;0.20;;;;;;;;;;5050787;28;20419;-81
2023/12/24 12:51:37;;;;;;;0.50;0.20;;;;;;;;;;5035108;28;20478;-81
2023/12/24 12:54:06;;;;;;;0.87;0.30;;;;;;;;;;5034885;28;20419;-80
2023/12/24 12:56:41;;;;;;;0.60;0.20;;;;;;;;;;5035127;28;20928;-79
2023/12/24 12:59:07;;;;;;;2.47;0.20;;;;;;;;;;5035111;28;20453;-80
2023/12/24 13:01:39;;;;;;;1.37;0.20;;;;;;;;;;5035155;28;20494;-81
2023/12/24 13:04:05;;;;;;;0.40;0.17;;;;;;;;;;5035005;28;20163;-80
2023/12/24 13:06:31;;;;;;;0.40;0.20;;;;;;;;;;5034964;28;20657;-79
2023/12/24 13:09:07;;;;;;;0.57;0.23;;;;;;;;;;5034505;28;20177;-80
2023/12/24 13:11:33;;;;;;;0.40;0.20;;;;;;;;;;5034739;28;20234;-81
2023/12/24 13:14:04;;;;;;;0.53;0.20;;;;;;;;;;5034735;28;20413;-80
2023/12/24 13:16:30;;;;;;;0.40;0.20;;;;;;;;;;5034841;28;20421;-80
2023/12/24 13:18:56;;;;;;;0.80;0.20;;;;;;;;;;5034744;28;20498;-80
2023/12/24 13:21:21;;;;;;;0.50;0.20;;;;;;;;;;5034655;28;20946;-81
2023/12/24 13:23:50;;;;;;;0.40;0.20;;;;;;;;;;5034206;28;20182;-80
2023/12/24 13:26:24;;;;;;;0.50;0.20;;;;;;;;;;5034691;28;20417;-81
2023/12/24 13:28:50;;;;;;;0.40;0.20;;;;;;;;;;5034592;28;20408;-81
2023/12/24 13:31:24;;;;;;;0.40;0.20;;;;;;;;;;5034432;28;20470;-81
2023/12/24 13:33:50;;;;;;;1.13;0.47;;;;;;;;;;5034198;28;20209;-80
2023/12/24 13:36:16;;;;;;;0.30;0.20;;;;;;;;;;5034487;28;20926;-80
2023/12/24 13:38:42;;;;;;;0.40;0.20;;;;;;;;;;5034085;28;20420;-79
2023/12/24 13:41:11;;;;;;;0.97;0.40;;;;;;;;;;5034103;28;20438;-81
2023/12/24 13:43:37;;;;;;;0.63;0.20;;;;;;;;;;5034145;28;20420;-80
2023/12/24 13:46:03;;;;;;;0.80;0.20;;;;;;;;;;5034304;28;20770;-80
2023/12/24 13:48:29;;;;;;;2.03;0.20;;;;;;;;;;5034224;28;20417;-80
2023/12/24 13:50:55;;;;;;;0.50;0.20;;;;;;;;;;5034100;28;20528;-80
2023/12/24 13:53:21;;;;;;;2.10;0.20;;;;;;;;;;5033699;28;20419;-78
2023/12/24 13:55:47;;;;;;;3.27;0.63;;;;;;;;;;5033988;28;20842;-80
2023/12/24 13:58:13;;;;;;;1.27;0.53;;;;;;;;;;5033942;28;20486;-79
2023/12/24 14:00:39;;;;;;;3.90;0.50;;;;;;;;;;5033931;28;20203;-79
2023/12/24 14:03:05;;;;;;;1.10;0.60;;;;;;;;;;5033954;28;20177;-81
2023/12/24 14:05:31;;;;;;;1.00;0.60;;;;;;;;;;5033964;28;20415;-80
2023/12/24 14:07:57;;;;;;;1.03;0.70;;;;;;;;;;5033426;28;20439;-80
2023/12/24 14:10:23;;;;;;;2.53;0.40;;;;;;;;;;5033584;28;20215;-80
2023/12/24 14:12:49;;;;;;;1.10;0.40;;;;;;;;;;5048995;28;20761;-81
2023/12/24 14:15:16;;;;;;;1.60;0.60;;;;;;;;;;5033663;28;20426;-81
2023/12/24 14:17:42;;;;;;;1.10;0.40;;;;;;;;;;5033643;28;20511;-80
2023/12/24 14:20:12;;;;;;;0.80;0.30;;;;;;;;;;5033577;28;20533;-80
2023/12/24 14:22:38;;;;;;;2.20;0.40;;;;;;;;;;5030789;28;20430;-81
2023/12/24 14:25:05;;;;;;;3.83;0.40;;;;;;;;;;5032513;28;20429;-80
2023/12/24 14:27:32;;;;;;;0.80;0.30;;;;;;;;;;5032968;28;20407;-81
2023/12/24 14:29:58;;;;;;;0.60;0.20;;;;;;;;;;5032498;28;20482;-80
2023/12/24 14:32:24;;;;;;;0.93;0.30;;;;;;;;;;5033939;28;20419;-79
2023/12/24 14:34:52;;;;;;;1.63;0.23;;;;;;;;;;5046717;28;20477;-80
2023/12/24 14:37:18;;;;;;;0.80;0.30;;;;;;;;;;5052425;28;20423;-81
2023/12/24 14:39:44;;;;;;;1.47;0.37;;;;;;;;;;5051172;28;20409;-81
2023/12/24 14:42:10;;;;;;;1.43;0.30;;;;;;;;;;5052589;28;20625;-80